»·PEaware :: AAL985 KSAN-KPHX

AAL985 :: KSAN-KPHX

FLIGHT INFORMATION

Flight Status: Arrived
Operator:
American Airlines
More flights by this operator :: More flights under this callsign
Pilot: Alfredo R. (12181)
Aircraft: BOEING 757-200
(B752)
More flights by this aircraft type
Origin: KSAN San Diego Intl-Lindbergh
United States
Destination: KPHX Phoenix Sky Harbor Intl
United States
More flights between these airports :: More routes between these airports
Route: +ZZOOO1 IPL J18 BZA HOGGZ HYDRR1
File this flight plan on PilotEdge
Remarks:
Altitude:
(Current/Filed)
27,000ft
Speed:
(Current/Filed)
475kts
Departed: 20-Mar-17 02:54 PM
Arrived: 20-Mar-17 03:56 PM
Distance/Time
Traveled:
264nm/1:02
Distance/Time
To Go:
Arrived

Flight Plot

Page will automatically refresh every two minutes.


Map Options




Map Legend


Flown Route
Filed Route
Departure Airport
Arrival Airport
Navaid (VOR, NDB)
Fix

Horizontal Profiles

Position Reports

Time Latitude Longitude Heading Altitude Ground
Speed
20-Mar-17 14:21 32.733070 -117.200598 280 28ft 0kts
20-Mar-17 14:22 32.733070 -117.200598 280 28ft 0kts
20-Mar-17 14:23 32.733070 -117.200598 280 28ft 0kts
20-Mar-17 14:24 32.733070 -117.200598 280 28ft 0kts
20-Mar-17 14:25 32.733070 -117.200598 280 28ft 0kts
20-Mar-17 14:26 32.733070 -117.200598 280 28ft 0kts
20-Mar-17 14:27 32.733070 -117.200598 280 28ft 0kts
20-Mar-17 14:28 32.733070 -117.200598 280 28ft 0kts
20-Mar-17 14:29 32.733070 -117.200598 280 28ft 0kts
20-Mar-17 14:30 32.733070 -117.200598 280 28ft 0kts
20-Mar-17 14:31 32.733070 -117.200598 280 28ft 0kts
20-Mar-17 14:32 32.733070 -117.200600 280 28ft 0kts
20-Mar-17 14:33 32.733039 -117.200305 269 28ft 1kts
20-Mar-17 14:34 32.732961 -117.199939 345 28ft 0kts
20-Mar-17 14:35 32.733183 -117.199888 14 28ft 0kts
20-Mar-17 14:36 32.733243 -117.199870 13 28ft 0kts
20-Mar-17 14:37 32.733243 -117.199870 13 28ft 0kts
20-Mar-17 14:38 32.733243 -117.199870 13 28ft 0kts
20-Mar-17 14:39 32.733243 -117.199870 13 28ft 0kts
20-Mar-17 14:40 32.733243 -117.199870 13 28ft 0kts
20-Mar-17 14:41 32.733243 -117.199870 13 28ft 0kts
20-Mar-17 14:42 32.733291 -117.199856 13 28ft 1kts
20-Mar-17 14:43 32.734261 -117.199597 15 28ft 0kts
20-Mar-17 14:44 32.734261 -117.199597 15 28ft 0kts
20-Mar-17 14:45 32.734261 -117.199597 15 28ft 0kts
20-Mar-17 14:46 32.734697 -117.199353 52 28ft 4kts
20-Mar-17 14:47 32.734051 -117.195963 106 28ft 16kts
20-Mar-17 14:48 32.732687 -117.190375 105 28ft 19kts
20-Mar-17 14:49 32.731319 -117.184705 106 28ft 17kts
20-Mar-17 14:50 32.730099 -117.179668 105 28ft 14kts
20-Mar-17 14:51 32.729509 -117.176791 77 28ft 0kts
20-Mar-17 14:52 32.729509 -117.176791 77 28ft 0kts
20-Mar-17 14:53 32.729588 -117.176453 73 28ft 5kts
20-Mar-17 14:54 32.730656 -117.177743 286 29ft 16kts
20-Mar-17 14:55 32.738933 -117.212447 285 468ft 208kts
20-Mar-17 14:56 32.754070 -117.282639 264 4063ft 236kts
20-Mar-17 14:57 32.702875 -117.307001 145 7691ft 263kts
20-Mar-17 14:58 32.644265 -117.252634 141 10703ft 294kts
20-Mar-17 14:59 32.620309 -117.148038 96 12355ft 365kts
20-Mar-17 15:00 32.611678 -117.027029 99 14406ft 377kts
20-Mar-17 15:01 32.604517 -116.901569 82 16410ft 394kts
20-Mar-17 15:02 32.628814 -116.773362 81 18436ft 406kts
20-Mar-17 15:03 32.642558 -116.637704 85 20464ft 423kts
20-Mar-17 15:04 32.656146 -116.496993 84 22489ft 435kts
20-Mar-17 15:05 32.670360 -116.352818 83 23119ft 441kts
20-Mar-17 15:06 32.684488 -116.208613 84 25062ft 446kts
20-Mar-17 15:07 32.698078 -116.063098 84 26994ft 448kts
20-Mar-17 15:08 32.711759 -115.913992 84 26948ft 457kts
20-Mar-17 15:09 32.725065 -115.764529 84 26946ft 457kts
20-Mar-17 15:10 32.738830 -115.614845 84 26947ft 456kts
20-Mar-17 15:11 32.749734 -115.465607 89 26931ft 455kts
20-Mar-17 15:12 32.753083 -115.315714 89 26937ft 455kts
20-Mar-17 15:13 32.756835 -115.166499 90 26942ft 454kts
20-Mar-17 15:14 32.759793 -115.016593 90 26948ft 455kts
20-Mar-17 15:15 32.762666 -114.867772 90 26942ft 455kts
20-Mar-17 15:16 32.765675 -114.717775 90 26941ft 456kts
20-Mar-17 15:17 32.768241 -114.568268 91 26943ft 455kts
20-Mar-17 15:18 32.770093 -114.419097 92 26942ft 449kts
20-Mar-17 15:19 32.772108 -114.271766 92 26934ft 448kts
20-Mar-17 15:20 32.773923 -114.124338 93 26937ft 449kts
20-Mar-17 15:21 32.784428 -113.975923 86 26325ft 452kts
20-Mar-17 15:22 32.800349 -113.829170 86 25347ft 446kts
20-Mar-17 15:23 32.824742 -113.687039 66 23977ft 442kts
20-Mar-17 15:24 32.877357 -113.556518 63 22521ft 432kts
20-Mar-17 15:25 32.965539 -113.466956 36 21106ft 420kts
20-Mar-17 15:26 33.047831 -113.371370 46 19661ft 408kts
20-Mar-17 15:27 33.120324 -113.276430 47 18146ft 379kts
20-Mar-17 15:28 33.189131 -113.183930 48 17075ft 371kts
20-Mar-17 15:29 33.256415 -113.091713 55 16260ft 364kts
20-Mar-17 15:30 33.275805 -112.981989 90 15443ft 335kts
20-Mar-17 15:31 33.278888 -112.872029 91 14636ft 329kts
20-Mar-17 15:32 33.285472 -112.763686 86 13836ft 326kts
20-Mar-17 15:33 33.295587 -112.657323 86 13050ft 319kts
20-Mar-17 15:34 33.305254 -112.553265 86 12255ft 313kts
20-Mar-17 15:35 33.314685 -112.450593 87 11455ft 308kts
20-Mar-17 15:36 33.323788 -112.350853 87 10635ft 291kts
20-Mar-17 15:37 33.332170 -112.262152 88 9700ft 253kts
20-Mar-17 15:38 33.339659 -112.179225 87 8885ft 249kts
20-Mar-17 15:39 33.346937 -112.097834 88 8101ft 246kts
20-Mar-17 15:40 33.350796 -112.016208 90 7295ft 245kts
20-Mar-17 15:41 33.346213 -111.935699 94 7006ft 243kts
20-Mar-17 15:42 33.348390 -111.855167 90 7018ft 243kts
20-Mar-17 15:43 33.351048 -111.774238 90 5961ft 241kts
20-Mar-17 15:44 33.353050 -111.696358 90 4221ft 232kts
20-Mar-17 15:45 33.354457 -111.620517 90 4026ft 231kts
20-Mar-17 15:46 33.361589 -111.544646 65 4018ft 227kts
20-Mar-17 15:47 33.407393 -111.521436 309 4049ft 205kts
20-Mar-17 15:48 33.411100 -111.583838 259 4045ft 196kts
20-Mar-17 15:49 33.403014 -111.648453 259 4027ft 196kts
20-Mar-17 15:50 33.402620 -111.713505 283 4008ft 202kts
20-Mar-17 15:51 33.418993 -111.775860 286 3899ft 193kts
20-Mar-17 15:52 33.429467 -111.833308 266 3710ft 159kts
20-Mar-17 15:53 33.427299 -111.884805 266 2750ft 152kts
20-Mar-17 15:54 33.427757 -111.931930 269 2365ft 129kts
20-Mar-17 15:55 33.428576 -111.974047 271 1659ft 127kts
20-Mar-17 15:56 33.428845 -112.014281 270 1146ft 75kts
20-Mar-17 15:57 33.429376 -112.021537 322 1146ft 0kts
20-Mar-17 15:58 33.429549 -112.021651 344 1145ft 2kts
20-Mar-17 15:59 33.429949 -112.020226 89 1145ft 7kts
20-Mar-17 16:00 33.429986 -112.016618 77 1146ft 11kts
20-Mar-17 16:01 33.432393 -112.015205 27 1145ft 9kts
20-Mar-17 16:02 33.432879 -112.012198 89 1145ft 11kts
20-Mar-17 16:03 33.433525 -112.010011 57 1145ft 3kts
20-Mar-17 16:04 33.433478 -112.009409 110 1145ft 0kts
20-Mar-17 16:05 33.433478 -112.009409 110 1145ft 0kts

Navigation Log

Ident Type
1. KSAN Airport
2. JETTI Fix
3. ZZOOO Fix
4. JORRJ Fix
5. GRIDR Fix
6. BLUZE Fix
7. IPL Navaid
8. IPL Navaid
9. HEEDS Fix
10. BZA Navaid
11. HOGGZ Fix
12. JUDTH Fix
13. RKDAM Fix
14. HYDRR Fix
15. GEELA Fix
16. PUNNT Fix
17. TEICH Fix
18. TESLE Fix
19. FALGO Fix
20. CAGOR Fix
21. FOWLE Fix
22. KPHX Airport